sensor_id;sensor_type;location;lat;lon;timestamp;pressure;altitude;pressure_sealevel;temperature;humidity
3206;BME280;1615;53.602;11.418;2023-03-17T00:00:28;101036.22;;;6.55;100.00
3206;BME280;1615;53.602;11.418;2023-03-17T00:02:53;101031.41;;;6.62;100.00
3206;BME280;1615;53.602;11.418;2023-03-17T00:05:23;101023.19;;;6.57;100.00
3206;BME280;1615;53.602;11.418;2023-03-17T00:07:51;101020.47;;;6.57;100.00
3206;BME280;1615;53.602;11.418;2023-03-17T00:10:24;101013.00;;;6.47;100.00
3206;BME280;1615;53.602;11.418;2023-03-17T00:12:52;101015.44;;;6.44;100.00
3206;BME280;1615;53.602;11.418;2023-03-17T00:15:19;101016.03;;;6.46;100.00
3206;BME280;1615;53.602;11.418;2023-03-17T00:17:45;101015.09;;;6.35;100.00
3206;BME280;1615;53.602;11.418;2023-03-17T00:20:25;101013.81;;;6.43;100.00
3206;BME280;1615;53.602;11.418;2023-03-17T00:22:53;101008.41;;;6.48;100.00
3206;BME280;1615;53.602;11.418;2023-03-17T00:25:28;100999.69;;;6.46;100.00
3206;BME280;1615;53.602;11.418;2023-03-17T00:27:55;100998.00;;;6.40;100.00
3206;BME280;1615;53.602;11.418;2023-03-17T00:30:22;100989.28;;;6.43;100.00
3206;BME280;1615;53.602;11.418;2023-03-17T00:32:50;100958.13;;;6.24;100.00
3206;BME280;1615;53.602;11.418;2023-03-17T00:35:23;100979.44;;;6.37;100.00
3206;BME280;1615;53.602;11.418;2023-03-17T00:37:50;101008.91;;;6.45;100.00
3206;BME280;1615;53.602;11.418;2023-03-17T00:42:49;101006.69;;;6.37;100.00
3206;BME280;1615;53.602;11.418;2023-03-17T00:45:15;101000.69;;;6.35;100.00
3206;BME280;1615;53.602;11.418;2023-03-17T00:47:41;100939.91;;;5.93;100.00
3206;BME280;1615;53.602;11.418;2023-03-17T00:50:11;101010.50;;;6.36;100.00
3206;BME280;1615;53.602;11.418;2023-03-17T00:52:37;100998.97;;;6.29;100.00
3206;BME280;1615;53.602;11.418;2023-03-17T00:55:04;100984.31;;;6.30;100.00
3206;BME280;1615;53.602;11.418;2023-03-17T00:57:30;100962.94;;;6.17;100.00
3206;BME280;1615;53.602;11.418;2023-03-17T00:59:58;100974.78;;;6.32;100.00
3206;BME280;1615;53.602;11.418;2023-03-17T01:02:23;100974.22;;;6.30;100.00
3206;BME280;1615;53.602;11.418;2023-03-17T01:04:49;100966.88;;;6.31;100.00
3206;BME280;1615;53.602;11.418;2023-03-17T01:07:15;100962.19;;;6.26;100.00
3206;BME280;1615;53.602;11.418;2023-03-17T01:09:40;100963.81;;;6.22;100.00
3206;BME280;1615;53.602;11.418;2023-03-17T01:12:11;100973.72;;;6.33;100.00
3206;BME280;1615;53.602;11.418;2023-03-17T01:14:37;100975.63;;;6.38;100.00
3206;BME280;1615;53.602;11.418;2023-03-17T01:17:15;100956.25;;;6.29;100.00
3206;BME280;1615;53.602;11.418;2023-03-17T01:19:41;100954.94;;;6.37;100.00
3206;BME280;1615;53.602;11.418;2023-03-17T01:22:07;100962.06;;;6.43;100.00
3206;BME280;1615;53.602;11.418;2023-03-17T01:24:34;100959.88;;;6.40;100.00
3206;BME280;1615;53.602;11.418;2023-03-17T01:27:00;100957.75;;;6.47;100.00
3206;BME280;1615;53.602;11.418;2023-03-17T01:29:26;100964.31;;;6.51;100.00
3206;BME280;1615;53.602;11.418;2023-03-17T01:31:51;100946.63;;;6.53;100.00
3206;BME280;1615;53.602;11.418;2023-03-17T01:34:17;100833.63;;;5.78;100.00
3206;BME280;1615;53.602;11.418;2023-03-17T01:36:45;100943.13;;;6.58;100.00
3206;BME280;1615;53.602;11.418;2023-03-17T01:39:11;100928.63;;;6.52;100.00
3206;BME280;1615;53.602;11.418;2023-03-17T01:41:37;100923.50;;;6.61;100.00
3206;BME280;1615;53.602;11.418;2023-03-17T01:44:04;100793.94;;;5.77;100.00
3206;BME280;1615;53.602;11.418;2023-03-17T01:46:33;100921.31;;;6.58;100.00
3206;BME280;1615;53.602;11.418;2023-03-17T01:49:16;100926.78;;;6.58;100.00
3206;BME280;1615;53.602;11.418;2023-03-17T01:54:17;100863.41;;;6.26;100.00
3206;BME280;1615;53.602;11.418;2023-03-17T01:56:47;100918.91;;;6.66;100.00
3206;BME280;1615;53.602;11.418;2023-03-17T01:59:22;100924.88;;;6.63;100.00
3206;BME280;1615;53.602;11.418;2023-03-17T02:01:51;100756.91;;;5.71;100.00
3206;BME280;1615;53.602;11.418;2023-03-17T02:04:18;100918.63;;;6.63;100.00
3206;BME280;1615;53.602;11.418;2023-03-17T02:06:48;100906.41;;;6.65;100.00
3206;BME280;1615;53.602;11.418;2023-03-17T02:09:13;100912.63;;;6.66;100.00
3206;BME280;1615;53.602;11.418;2023-03-17T02:11:39;100910.50;;;6.68;100.00
3206;BME280;1615;53.602;11.418;2023-03-17T02:14:05;100905.84;;;6.68;100.00
3206;BME280;1615;53.602;11.418;2023-03-17T02:16:31;100904.75;;;6.64;100.00
3206;BME280;1615;53.602;11.418;2023-03-17T02:18:57;100906.09;;;6.62;100.00
3206;BME280;1615;53.602;11.418;2023-03-17T02:21:43;100907.47;;;6.64;100.00
3206;BME280;1615;53.602;11.418;2023-03-17T02:26:49;100916.19;;;6.66;100.00
3206;BME280;1615;53.602;11.418;2023-03-17T02:29:20;100921.94;;;6.70;100.00
3206;BME280;1615;53.602;11.418;2023-03-17T02:31:45;100908.28;;;6.65;100.00
3206;BME280;1615;53.602;11.418;2023-03-17T02:34:10;100906.06;;;6.57;100.00
3206;BME280;1615;53.602;11.418;2023-03-17T02:36:36;100907.16;;;6.56;100.00
3206;BME280;1615;53.602;11.418;2023-03-17T02:39:02;100905.00;;;6.58;100.00
3206;BME280;1615;53.602;11.418;2023-03-17T02:41:28;100901.16;;;6.59;100.00
3206;BME280;1615;53.602;11.418;2023-03-17T02:43:54;100901.72;;;6.56;100.00
3206;BME280;1615;53.602;11.418;2023-03-17T02:46:21;100905.00;;;6.58;100.00
3206;BME280;1615;53.602;11.418;2023-03-17T02:48:46;100903.88;;;6.54;100.00
3206;BME280;1615;53.602;11.418;2023-03-17T02:51:13;100794.06;;;5.92;100.00
3206;BME280;1615;53.602;11.418;2023-03-17T02:53:38;100902.22;;;6.53;100.00
3206;BME280;1615;53.602;11.418;2023-03-17T02:56:03;100896.25;;;6.51;100.00
3206;BME280;1615;53.602;11.418;2023-03-17T02:58:29;100909.84;;;6.51;100.00
3206;BME280;1615;53.602;11.418;2023-03-17T03:00:55;100911.50;;;6.52;100.00
3206;BME280;1615;53.602;11.418;2023-03-17T03:03:20;100899.50;;;6.53;100.00
3206;BME280;1615;53.602;11.418;2023-03-17T03:05:46;100767.78;;;5.71;100.00
3206;BME280;1615;53.602;11.418;2023-03-17T03:08:11;100902.75;;;6.50;100.00
3206;BME280;1615;53.602;11.418;2023-03-17T03:10:37;100895.16;;;6.52;100.00
3206;BME280;1615;53.602;11.418;2023-03-17T03:13:02;100891.06;;;6.49;100.00
3206;BME280;1615;53.602;11.418;2023-03-17T03:15:28;100883.13;;;6.48;100.00
3206;BME280;1615;53.602;11.418;2023-03-17T03:17:53;100873.38;;;6.52;100.00
3206;BME280;1615;53.602;11.418;2023-03-17T03:20:18;100879.88;;;6.46;100.00
3206;BME280;1615;53.602;11.418;2023-03-17T03:22:45;100879.56;;;6.42;100.00
3206;BME280;1615;53.602;11.418;2023-03-17T03:25:10;100898.91;;;6.41;100.00
3206;BME280;1615;53.602;11.418;2023-03-17T03:27:36;100898.91;;;6.41;100.00
3206;BME280;1615;53.602;11.418;2023-03-17T03:30:02;100871.09;;;6.39;100.00
3206;BME280;1615;53.602;11.418;2023-03-17T03:32:27;100863.72;;;6.34;100.00
3206;BME280;1615;53.602;11.418;2023-03-17T03:34:53;100854.72;;;6.34;100.00
3206;BME280;1615;53.602;11.418;2023-03-17T03:37:18;100862.34;;;6.32;100.00
3206;BME280;1615;53.602;11.418;2023-03-17T03:39:44;100873.81;;;6.39;100.00
3206;BME280;1615;53.602;11.418;2023-03-17T03:42:10;100864.56;;;6.35;100.00
3206;BME280;1615;53.602;11.418;2023-03-17T03:44:35;100779.63;;;5.91;100.00
3206;BME280;1615;53.602;11.418;2023-03-17T03:47:00;100724.72;;;5.58;100.00
3206;BME280;1615;53.602;11.418;2023-03-17T03:49:26;100855.81;;;6.33;100.00
3206;BME280;1615;53.602;11.418;2023-03-17T03:51:52;100860.50;;;6.37;100.00
3206;BME280;1615;53.602;11.418;2023-03-17T03:54:17;100861.59;;;6.41;100.00
3206;BME280;1615;53.602;11.418;2023-03-17T03:56:42;100713.75;;;5.48;100.00
3206;BME280;1615;53.602;11.418;2023-03-17T03:59:08;100870.63;;;6.47;100.00
3206;BME280;1615;53.602;11.418;2023-03-17T04:01:33;100868.19;;;6.50;100.00
3206;BME280;1615;53.602;11.418;2023-03-17T04:03:59;100861.34;;;6.48;100.00
3206;BME280;1615;53.602;11.418;2023-03-17T04:06:25;100864.03;;;6.43;100.00
3206;BME280;1615;53.602;11.418;2023-03-17T04:08:50;100872.75;;;6.45;100.00
3206;BME280;1615;53.602;11.418;2023-03-17T04:11:16;100876.84;;;6.47;100.00
3206;BME280;1615;53.602;11.418;2023-03-17T04:13:41;100854.31;;;6.52;100.00
3206;BME280;1615;53.602;11.418;2023-03-17T04:16:07;100852.13;;;6.54;100.00
3206;BME280;1615;53.602;11.418;2023-03-17T04:18:32;100854.31;;;6.52;100.00
3206;BME280;1615;53.602;11.418;2023-03-17T04:20:58;100840.09;;;6.40;100.00
3206;BME280;1615;53.602;11.418;2023-03-17T04:23:23;100869.81;;;6.51;100.00
3206;BME280;1615;53.602;11.418;2023-03-17T04:25:50;100867.38;;;6.55;100.00
3206;BME280;1615;53.602;11.418;2023-03-17T04:28:16;100875.25;;;6.51;100.00
3206;BME280;1615;53.602;11.418;2023-03-17T04:30:41;100871.19;;;6.54;100.00
3206;BME280;1615;53.602;11.418;2023-03-17T04:33:07;100879.38;;;6.59;100.00
3206;BME280;1615;53.602;11.418;2023-03-17T04:35:32;100876.13;;;6.57;100.00
3206;BME280;1615;53.602;11.418;2023-03-17T04:37:57;100864.69;;;6.60;100.00
3206;BME280;1615;53.602;11.418;2023-03-17T04:40:22;100849.13;;;6.50;100.00
3206;BME280;1615;53.602;11.418;2023-03-17T04:42:48;100869.03;;;6.56;100.00
3206;BME280;1615;53.602;11.418;2023-03-17T04:45:13;100874.47;;;6.56;100.00
3206;BME280;1615;53.602;11.418;2023-03-17T04:47:39;100876.13;;;6.57;100.00
3206;BME280;1615;53.602;11.418;2023-03-17T04:50:05;100814.34;;;6.16;100.00
3206;BME280;1615;53.602;11.418;2023-03-17T04:52:33;100874.47;;;6.56;100.00
3206;BME280;1615;53.602;11.418;2023-03-17T04:54:59;100864.66;;;6.55;100.00
3206;BME280;1615;53.602;11.418;2023-03-17T04:57:24;100863.28;;;6.52;100.00
3206;BME280;1615;53.602;11.418;2023-03-17T04:59:49;100846.41;;;6.55;100.00
3206;BME280;1615;53.602;11.418;2023-03-17T05:02:15;100689.94;;;5.60;100.00
3206;BME280;1615;53.602;11.418;2023-03-17T05:04:42;100837.38;;;6.50;100.00
3206;BME280;1615;53.602;11.418;2023-03-17T05:07:08;100834.66;;;6.50;100.00
3206;BME280;1615;53.602;11.418;2023-03-17T05:09:34;100824.81;;;6.39;100.00
3206;BME280;1615;53.602;11.418;2023-03-17T05:11:59;100810.94;;;6.40;100.00
3206;BME280;1615;53.602;11.418;2023-03-17T05:14:24;100789.34;;;6.19;100.00
3206;BME280;1615;53.602;11.418;2023-03-17T05:16:50;100810.84;;;6.25;100.00
3206;BME280;1615;53.602;11.418;2023-03-17T05:19:16;100776.31;;;6.31;100.00
3206;BME280;1615;53.602;11.418;2023-03-17T05:21:42;100763.75;;;6.20;100.00
3206;BME280;1615;53.602;11.418;2023-03-17T05:24:08;100756.03;;;6.07;100.00
3206;BME280;1615;53.602;11.418;2023-03-17T05:26:33;100760.75;;;6.16;100.00
3206;BME280;1615;53.602;11.418;2023-03-17T05:28:59;100764.84;;;6.19;100.00
3206;BME280;1615;53.602;11.418;2023-03-17T05:31:24;100758.03;;;6.16;100.00
3206;BME280;1615;53.602;11.418;2023-03-17T05:33:49;100768.63;;;6.18;100.00
3206;BME280;1615;53.602;11.418;2023-03-17T05:36:15;100775.97;;;6.12;100.00
3206;BME280;1615;53.602;11.418;2023-03-17T05:38:41;100776.75;;;6.13;100.00
3206;BME280;1615;53.602;11.418;2023-03-17T05:41:06;100777.06;;;6.16;100.00
3206;BME280;1615;53.602;11.418;2023-03-17T05:43:32;100787.97;;;6.16;100.00
3206;BME280;1615;53.602;11.418;2023-03-17T05:45:57;100766.66;;;6.08;100.00
3206;BME280;1615;53.602;11.418;2023-03-17T05:48:22;100785.81;;;6.23;100.00
3206;BME280;1615;53.602;11.418;2023-03-17T05:50:48;100788.53;;;6.23;100.00
3206;BME280;1615;53.602;11.418;2023-03-17T05:53:13;100792.09;;;6.24;100.00
3206;BME280;1615;53.602;11.418;2023-03-17T05:55:39;100811.16;;;6.34;100.00
3206;BME280;1615;53.602;11.418;2023-03-17T05:58:05;100737.50;;;5.99;100.00
3206;BME280;1615;53.602;11.418;2023-03-17T06:00:31;100799.78;;;6.42;100.00
3206;BME280;1615;53.602;11.418;2023-03-17T06:02:57;100796.25;;;6.46;100.00
3206;BME280;1615;53.602;11.418;2023-03-17T06:05:22;100685.22;;;5.87;100.00
3206;BME280;1615;53.602;11.418;2023-03-17T06:07:48;100787.03;;;6.52;100.00
3206;BME280;1615;53.602;11.418;2023-03-17T06:10:13;100777.47;;;6.50;100.00
3206;BME280;1615;53.602;11.418;2023-03-17T06:12:39;100780.69;;;6.32;100.00
3206;BME280;1615;53.602;11.418;2023-03-17T06:15:05;100777.41;;;6.30;100.00
3206;BME280;1615;53.602;11.418;2023-03-17T06:17:31;100766.56;;;6.40;100.00
3206;BME280;1615;53.602;11.418;2023-03-17T06:19:56;100766.59;;;6.50;100.00
3206;BME280;1615;53.602;11.418;2023-03-17T06:22:22;100768.25;;;6.51;100.00
3206;BME280;1615;53.602;11.418;2023-03-17T06:24:47;100767.13;;;6.47;100.00
3206;BME280;1615;53.602;11.418;2023-03-17T06:27:12;100768.22;;;6.41;100.00
3206;BME280;1615;53.602;11.418;2023-03-17T06:29:38;100763.31;;;6.48;100.00
3206;BME280;1615;53.602;11.418;2023-03-17T06:32:04;100766.06;;;6.53;100.00
3206;BME280;1615;53.602;11.418;2023-03-17T06:34:30;100629.63;;;5.73;100.00
3206;BME280;1615;53.602;11.418;2023-03-17T06:36:55;100645.47;;;5.86;100.00
3206;BME280;1615;53.602;11.418;2023-03-17T06:39:21;100757.38;;;6.56;100.00
3206;BME280;1615;53.602;11.418;2023-03-17T06:41:46;100780.50;;;6.58;100.00
3206;BME280;1615;53.602;11.418;2023-03-17T06:44:12;100753.28;;;6.58;100.00
3206;BME280;1615;53.602;11.418;2023-03-17T06:46:38;100756.31;;;6.62;100.00
3206;BME280;1615;53.602;11.418;2023-03-17T06:49:03;100748.94;;;6.62;100.00
3206;BME280;1615;53.602;11.418;2023-03-17T06:51:29;100756.81;;;6.54;100.00
3206;BME280;1615;53.602;11.418;2023-03-17T06:53:57;100605.06;;;5.58;100.00
3206;BME280;1615;53.602;11.418;2023-03-17T06:56:22;100757.88;;;6.48;100.00
3206;BME280;1615;53.602;11.418;2023-03-17T06:58:47;100762.81;;;6.61;100.00
3206;BME280;1615;53.602;11.418;2023-03-17T07:01:13;100639.03;;;6.02;100.00
3206;BME280;1615;53.602;11.418;2023-03-17T07:03:40;100754.38;;;6.62;100.00
3206;BME280;1615;53.602;11.418;2023-03-17T07:06:05;100657.03;;;6.13;100.00
3206;BME280;1615;53.602;11.418;2023-03-17T07:08:31;100748.72;;;6.79;100.00
3206;BME280;1615;53.602;11.418;2023-03-17T07:10:58;100727.97;;;6.58;100.00
3206;BME280;1615;53.602;11.418;2023-03-17T07:13:24;100747.38;;;6.81;100.00
3206;BME280;1615;53.602;11.418;2023-03-17T07:15:50;100749.81;;;6.93;100.00
3206;BME280;1615;53.602;11.418;2023-03-17T07:18:15;100745.50;;;7.02;100.00
3206;BME280;1615;53.602;11.418;2023-03-17T07:20:42;100728.59;;;6.90;100.00
3206;BME280;1615;53.602;11.418;2023-03-17T07:23:12;100650.84;;;6.32;100.00
3206;BME280;1615;53.602;11.418;2023-03-17T07:25:39;100759.13;;;7.02;100.00
3206;BME280;1615;53.602;11.418;2023-03-17T07:28:07;100618.94;;;6.23;100.00
3206;BME280;1615;53.602;11.418;2023-03-17T07:30:34;100785.88;;;7.35;100.00
3206;BME280;1615;53.602;11.418;2023-03-17T07:32:59;100771.72;;;7.43;100.00
3206;BME280;1615;53.602;11.418;2023-03-17T07:35:24;100769.50;;;7.45;100.00
3206;BME280;1615;53.602;11.418;2023-03-17T07:37:49;100771.16;;;7.56;100.00
3206;BME280;1615;53.602;11.418;2023-03-17T07:40:15;100785.34;;;7.58;100.00
3206;BME280;1615;53.602;11.418;2023-03-17T07:42:42;100770.34;;;7.65;100.00
3206;BME280;1615;53.602;11.418;2023-03-17T07:45:10;100683.38;;;6.99;100.00
3206;BME280;1615;53.602;11.418;2023-03-17T07:47:35;100767.88;;;7.84;100.00
3206;BME280;1615;53.602;11.418;2023-03-17T07:50:01;100763.47;;;7.93;100.00
3206;BME280;1615;53.602;11.418;2023-03-17T07:52:26;100737.28;;;7.92;100.00
3206;BME280;1615;53.602;11.418;2023-03-17T07:54:51;100749.81;;;7.98;100.00
3206;BME280;1615;53.602;11.418;2023-03-17T07:57:17;100747.34;;;8.01;100.00
3206;BME280;1615;53.602;11.418;2023-03-17T07:59:42;100708.13;;;7.67;100.00
3206;BME280;1615;53.602;11.418;2023-03-17T08:02:13;100739.47;;;8.00;100.00
3206;BME280;1615;53.602;11.418;2023-03-17T08:04:39;100766.69;;;8.25;100.00
3206;BME280;1615;53.602;11.418;2023-03-17T08:07:05;100751.38;;;8.34;100.00
3206;BME280;1615;53.602;11.418;2023-03-17T08:09:31;100745.06;;;8.43;100.00
3206;BME280;1615;53.602;11.418;2023-03-17T08:11:56;100749.66;;;8.53;100.00
3206;BME280;1615;53.602;11.418;2023-03-17T08:14:22;100743.69;;;8.46;100.00
3206;BME280;1615;53.602;11.418;2023-03-17T08:16:47;100741.75;;;8.51;100.00
3206;BME280;1615;53.602;11.418;2023-03-17T08:19:12;100694.59;;;8.26;100.00
3206;BME280;1615;53.602;11.418;2023-03-17T08:21:38;100745.00;;;8.53;100.00
3206;BME280;1615;53.602;11.418;2023-03-17T08:24:03;100752.91;;;8.60;100.00
3206;BME280;1615;53.602;11.418;2023-03-17T08:26:32;100746.31;;;8.66;100.00
3206;BME280;1615;53.602;11.418;2023-03-17T08:28:58;100677.16;;;8.22;100.00
3206;BME280;1615;53.602;11.418;2023-03-17T08:31:23;100745.72;;;8.74;100.00
3206;BME280;1615;53.602;11.418;2023-03-17T08:33:51;100739.69;;;8.82;100.00
3206;BME280;1615;53.602;11.418;2023-03-17T08:36:18;100739.41;;;8.83;100.00
3206;BME280;1615;53.602;11.418;2023-03-17T08:38:45;100728.72;;;8.87;100.00
3206;BME280;1615;53.602;11.418;2023-03-17T08:41:15;100711.41;;;8.96;100.00
3206;BME280;1615;53.602;11.418;2023-03-17T08:43:41;100715.44;;;9.09;100.00
3206;BME280;1615;53.602;11.418;2023-03-17T08:46:28;100695.19;;;9.10;100.00
3206;BME280;1615;53.602;11.418;2023-03-17T08:48:55;100712.97;;;9.41;100.00
3206;BME280;1615;53.602;11.418;2023-03-17T08:51:22;100697.25;;;9.28;100.00
3206;BME280;1615;53.602;11.418;2023-03-17T08:53:49;100722.25;;;9.45;100.00
3206;BME280;1615;53.602;11.418;2023-03-17T08:56:15;100709.63;;;9.49;100.00
3206;BME280;1615;53.602;11.418;2023-03-17T08:58:41;100709.72;;;9.39;100.00
3206;BME280;1615;53.602;11.418;2023-03-17T09:01:07;100697.75;;;9.30;99.88
3206;BME280;1615;53.602;11.418;2023-03-17T09:03:35;100669.47;;;9.11;100.00
3206;BME280;1615;53.602;11.418;2023-03-17T09:06:01;100697.72;;;9.35;100.00
3206;BME280;1615;53.602;11.418;2023-03-17T09:08:30;100700.88;;;9.47;99.97
3206;BME280;1615;53.602;11.418;2023-03-17T09:10:59;100668.09;;;9.42;98.73
3206;BME280;1615;53.602;11.418;2023-03-17T09:13:25;100670.13;;;9.60;98.79
3206;BME280;1615;53.602;11.418;2023-03-17T09:15:53;100689.84;;;9.57;99.42
3206;BME280;1615;53.602;11.418;2023-03-17T09:18:20;100683.69;;;9.70;99.49
3206;BME280;1615;53.602;11.418;2023-03-17T09:20:46;100682.03;;;9.97;98.56
3206;BME280;1615;53.602;11.418;2023-03-17T09:23:11;100679.50;;;10.48;97.09
3206;BME280;1615;53.602;11.418;2023-03-17T09:25:38;100684.94;;;10.90;94.22
3206;BME280;1615;53.602;11.418;2023-03-17T09:28:05;100686.84;;;11.08;91.69
3206;BME280;1615;53.602;11.418;2023-03-17T09:30:31;100680.84;;;11.06;89.33
3206;BME280;1615;53.602;11.418;2023-03-17T09:32:57;100679.94;;;11.10;88.74
3206;BME280;1615;53.602;11.418;2023-03-17T09:35:23;100673.94;;;11.08;87.86
3206;BME280;1615;53.602;11.418;2023-03-17T09:37:49;100550.78;;;10.43;88.01
3206;BME280;1615;53.602;11.418;2023-03-17T09:40:17;100670.63;;;11.25;88.60
3206;BME280;1615;53.602;11.418;2023-03-17T09:45:38;100665.34;;;11.47;87.33
3206;BME280;1615;53.602;11.418;2023-03-17T09:48:15;100671.41;;;11.44;85.81
3206;BME280;1615;53.602;11.418;2023-03-17T09:50:53;100677.00;;;11.39;86.96
3206;BME280;1615;53.602;11.418;2023-03-17T09:53:28;100674.88;;;11.36;86.32
3206;BME280;1615;53.602;11.418;2023-03-17T09:56:00;100675.06;;;11.39;86.40
3206;BME280;1615;53.602;11.418;2023-03-17T09:58:31;100677.25;;;11.24;84.74
3206;BME280;1615;53.602;11.418;2023-03-17T10:00:58;100636.00;;;10.97;86.34
3206;BME280;1615;53.602;11.418;2023-03-17T10:03:24;100677.84;;;11.21;87.20
3206;BME280;1615;53.602;11.418;2023-03-17T10:05:50;100591.72;;;10.71;87.39
3206;BME280;1615;53.602;11.418;2023-03-17T10:08:30;100675.78;;;11.13;86.35
3206;BME280;1615;53.602;11.418;2023-03-17T10:11:11;100667.72;;;11.03;88.47
3206;BME280;1615;53.602;11.418;2023-03-17T10:13:59;100672.78;;;11.28;88.54
3206;BME280;1615;53.602;11.418;2023-03-17T10:16:35;100672.94;;;11.50;87.62
3206;BME280;1615;53.602;11.418;2023-03-17T10:19:24;100664.56;;;11.60;87.54
3206;BME280;1615;53.602;11.418;2023-03-17T10:21:55;100652.19;;;11.76;86.82
3206;BME280;1615;53.602;11.418;2023-03-17T10:24:23;100666.94;;;11.93;87.20
3206;BME280;1615;53.602;11.418;2023-03-17T10:26:51;100672.94;;;12.09;87.13
3206;BME280;1615;53.602;11.418;2023-03-17T10:29:21;100661.47;;;12.20;85.49
3206;BME280;1615;53.602;11.418;2023-03-17T10:31:49;100652.38;;;12.20;84.19
3206;BME280;1615;53.602;11.418;2023-03-17T10:34:17;100545.66;;;11.46;84.17
3206;BME280;1615;53.602;11.418;2023-03-17T10:36:50;100587.09;;;11.90;85.82
3206;BME280;1615;53.602;11.418;2023-03-17T10:39:19;100651.56;;;12.33;85.44
3206;BME280;1615;53.602;11.418;2023-03-17T10:41:54;100646.47;;;12.40;85.12
3206;BME280;1615;53.602;11.418;2023-03-17T10:44:26;100649.63;;;12.33;85.59
3206;BME280;1615;53.602;11.418;2023-03-17T10:46:54;100638.72;;;12.42;86.43
3206;BME280;1615;53.602;11.418;2023-03-17T10:49:20;100286.25;;;10.05;85.14
3206;BME280;1615;53.602;11.418;2023-03-17T10:51:50;100509.88;;;11.78;85.17
3206;BME280;1615;53.602;11.418;2023-03-17T10:54:19;100648.78;;;12.60;83.29
3206;BME280;1615;53.602;11.418;2023-03-17T10:56:58;100631.94;;;12.75;81.98
3206;BME280;1615;53.602;11.418;2023-03-17T10:59:30;100615.19;;;12.71;82.51
3206;BME280;1615;53.602;11.418;2023-03-17T11:02:15;100646.16;;;12.77;82.59
3206;BME280;1615;53.602;11.418;2023-03-17T11:04:43;100619.66;;;12.81;81.70
3206;BME280;1615;53.602;11.418;2023-03-17T11:07:16;100614.53;;;12.88;82.85
3206;BME280;1615;53.602;11.418;2023-03-17T11:09:42;100611.44;;;13.03;83.27
3206;BME280;1615;53.602;11.418;2023-03-17T11:12:25;100617.06;;;13.20;82.43
3206;BME280;1615;53.602;11.418;2023-03-17T11:15:02;100530.50;;;13.04;81.57
3206;BME280;1615;53.602;11.418;2023-03-17T11:17:52;100597.94;;;13.76;79.02
3206;BME280;1615;53.602;11.418;2023-03-17T11:20:38;100595.72;;;13.95;77.93
3206;BME280;1615;53.602;11.418;2023-03-17T11:34:20;100582.56;;;14.65;68.90
3206;BME280;1615;53.602;11.418;2023-03-17T11:37:01;100605.28;;;14.87;70.56
3206;BME280;1615;53.602;11.418;2023-03-17T11:42:23;100589.06;;;14.77;69.46
3206;BME280;1615;53.602;11.418;2023-03-17T11:45:13;100591.97;;;14.72;69.85
3206;BME280;1615;53.602;11.418;2023-03-17T11:55:51;100564.31;;;15.06;73.50
3206;BME280;1615;53.602;11.418;2023-03-17T11:58:42;100577.59;;;15.30;68.94
3206;BME280;1615;53.602;11.418;2023-03-17T12:01:13;100567.22;;;15.35;66.56
3206;BME280;1615;53.602;11.418;2023-03-17T12:04:10;100579.25;;;15.31;65.66
3206;BME280;1615;53.602;11.418;2023-03-17T12:06:45;100563.00;;;15.38;65.07
3206;BME280;1615;53.602;11.418;2023-03-17T12:09:30;100556.16;;;15.44;63.88
3206;BME280;1615;53.602;11.418;2023-03-17T12:12:01;100570.28;;;15.42;64.42
3206;BME280;1615;53.602;11.418;2023-03-17T12:14:54;100565.41;;;15.48;64.33
3206;BME280;1615;53.602;11.418;2023-03-17T12:17:29;100568.03;;;15.44;63.28
3206;BME280;1615;53.602;11.418;2023-03-17T12:20:06;100574.03;;;15.38;63.36
3206;BME280;1615;53.602;11.418;2023-03-17T12:28:35;100512.13;;;14.59;68.23
3206;BME280;1615;53.602;11.418;2023-03-17T12:31:12;100579.47;;;14.92;68.54
3206;BME280;1615;53.602;11.418;2023-03-17T12:33:47;100584.16;;;15.00;68.38
3206;BME280;1615;53.602;11.418;2023-03-17T12:36:15;100567.91;;;15.07;69.61
3206;BME280;1615;53.602;11.418;2023-03-17T12:41:40;100560.13;;;14.92;68.97
3206;BME280;1615;53.602;11.418;2023-03-17T12:50:24;100555.09;;;15.02;71.12
3206;BME280;1615;53.602;11.418;2023-03-17T12:53:24;100556.91;;;14.90;70.69
3206;BME280;1615;53.602;11.418;2023-03-17T12:55:55;100561.94;;;14.79;71.27
3206;BME280;1615;53.602;11.418;2023-03-17T12:58:35;100572.50;;;14.69;72.30
3206;BME280;1615;53.602;11.418;2023-03-17T13:01:13;100546.84;;;14.77;72.45
3206;BME280;1615;53.602;11.418;2023-03-17T13:07:10;100542.13;;;14.77;74.28
3206;BME280;1615;53.602;11.418;2023-03-17T13:09:48;100553.84;;;14.83;74.63
3206;BME280;1615;53.602;11.418;2023-03-17T13:18:20;100528.53;;;15.44;70.10
3206;BME280;1615;53.602;11.418;2023-03-17T13:23:34;100524.53;;;15.62;69.92
3206;BME280;1615;53.602;11.418;2023-03-17T13:26:01;100520.06;;;15.78;69.01
3206;BME280;1615;53.602;11.418;2023-03-17T13:33:43;100484.41;;;15.56;69.77
3206;BME280;1615;53.602;11.418;2023-03-17T13:39:06;100492.13;;;15.71;73.30
3206;BME280;1615;53.602;11.418;2023-03-17T13:41:46;100498.28;;;15.76;73.78
3206;BME280;1615;53.602;11.418;2023-03-17T13:47:32;100489.47;;;15.54;74.15
3206;BME280;1615;53.602;11.418;2023-03-17T13:52:42;100480.00;;;15.26;75.30
3206;BME280;1615;53.602;11.418;2023-03-17T13:57:41;100477.94;;;15.06;74.25
3206;BME280;1615;53.602;11.418;2023-03-17T14:00:22;100478.44;;;14.99;75.25
3206;BME280;1615;53.602;11.418;2023-03-17T14:03:04;100473.69;;;15.17;76.58
3206;BME280;1615;53.602;11.418;2023-03-17T14:05:33;100467.19;;;15.13;74.94
3206;BME280;1615;53.602;11.418;2023-03-17T14:08:13;100489.38;;;15.25;72.73
3206;BME280;1615;53.602;11.418;2023-03-17T14:10:40;100498.16;;;15.35;72.61
3206;BME280;1615;53.602;11.418;2023-03-17T14:13:23;100489.19;;;15.47;73.16
3206;BME280;1615;53.602;11.418;2023-03-17T14:15:52;100492.94;;;15.42;73.73
3206;BME280;1615;53.602;11.418;2023-03-17T14:18:39;100500.44;;;15.25;71.73
3206;BME280;1615;53.602;11.418;2023-03-17T14:21:23;100473.88;;;15.03;72.31
3206;BME280;1615;53.602;11.418;2023-03-17T14:23:55;100477.31;;;14.92;72.47